createdAt,value
2019-01-02T00:00:17.977Z,1009.43
2019-01-02T00:01:17.990Z,1009.48
2019-01-02T00:02:18.003Z,1009.48
2019-01-02T00:03:18.020Z,1009.48
2019-01-02T00:04:18.019Z,1009.45
2019-01-02T00:05:18.031Z,1009.44
2019-01-02T00:06:18.045Z,1009.45
2019-01-02T00:07:18.058Z,1009.50
2019-01-02T00:08:18.073Z,1009.42
2019-01-02T00:09:18.086Z,1009.45
2019-01-02T00:10:18.086Z,1009.39
2019-01-02T00:11:18.101Z,1009.45
2019-01-02T00:12:18.114Z,1009.35
2019-01-02T00:13:18.128Z,1009.39
2019-01-02T00:14:18.144Z,1009.45
2019-01-02T00:15:18.143Z,1009.48
2019-01-02T00:16:18.155Z,1009.49
2019-01-02T00:17:18.168Z,1009.35
2019-01-02T00:18:18.183Z,1009.64
2019-01-02T00:19:18.195Z,1009.54
2019-01-02T00:20:18.197Z,1009.49
2019-01-02T00:21:18.215Z,1009.50
2019-01-02T00:22:18.227Z,1009.52
2019-01-02T00:23:18.239Z,1009.61
2019-01-02T00:24:18.251Z,1009.66
2019-01-02T00:25:18.265Z,1009.63
2019-01-02T00:26:18.266Z,1009.60
2019-01-02T00:27:18.279Z,1009.60
2019-01-02T00:28:18.293Z,1009.60
2019-01-02T00:29:18.319Z,1009.68
2019-01-02T00:30:18.320Z,1009.57
2019-01-02T00:31:18.321Z,1009.54
2019-01-02T00:32:18.335Z,1009.58
2019-01-02T00:33:18.349Z,1009.61
2019-01-02T00:34:18.362Z,1009.61
2019-01-02T00:35:18.375Z,1009.60
2019-01-02T00:36:18.376Z,1009.62
2019-01-02T00:37:18.390Z,1009.61
2019-01-02T00:38:18.404Z,1009.57
2019-01-02T00:39:18.417Z,1009.63
2019-01-02T00:40:18.436Z,1009.64
2019-01-02T00:41:18.434Z,1009.52
2019-01-02T00:42:18.445Z,1009.67
2019-01-02T00:43:18.459Z,1009.57
2019-01-02T00:44:18.472Z,1009.63
2019-01-02T00:45:22.332Z,1009.62
2019-01-02T00:46:18.499Z,1009.66
2019-01-02T00:47:18.499Z,1009.64
2019-01-02T00:48:18.513Z,1009.67
2019-01-02T00:49:18.527Z,1009.62
2019-01-02T00:50:18.551Z,1009.64
2019-01-02T00:51:18.555Z,1009.64
2019-01-02T00:52:18.555Z,1009.67
2019-01-02T00:53:18.570Z,1009.75
2019-01-02T00:54:18.582Z,1009.67
2019-01-02T00:55:18.596Z,1009.65
2019-01-02T00:56:18.610Z,1009.71
2019-01-02T00:57:18.611Z,1009.77
2019-01-02T00:58:18.626Z,1009.67
2019-01-02T00:59:18.637Z,1009.66
2019-01-02T01:00:18.652Z,1009.80
2019-01-02T01:01:18.664Z,1009.87
2019-01-02T01:02:18.665Z,1009.88
2019-01-02T01:03:18.679Z,1009.86
2019-01-02T01:04:18.694Z,1009.93
2019-01-02T01:05:18.706Z,1009.86
2019-01-02T01:06:18.719Z,1009.92
2019-01-02T01:07:18.720Z,1009.95
2019-01-02T01:08:18.735Z,1010.06
2019-01-02T01:09:18.749Z,1009.97
2019-01-02T01:10:18.762Z,1009.89
2019-01-02T01:11:18.775Z,1009.92
2019-01-02T01:12:18.777Z,1009.89
2019-01-02T01:13:18.789Z,1009.93
2019-01-02T01:14:18.802Z,1009.90
2019-01-02T01:15:18.817Z,1009.98
2019-01-02T01:16:18.831Z,1009.95
2019-01-02T01:17:18.830Z,1009.92
2019-01-02T01:18:18.846Z,1009.99
2019-01-02T01:19:18.857Z,1009.99
2019-01-02T01:20:18.872Z,1010.01
2019-01-02T01:21:18.884Z,1009.98
2019-01-02T01:22:18.887Z,1009.96
2019-01-02T01:23:18.900Z,1009.90
2019-01-02T01:24:18.913Z,1010.03
2019-01-02T01:25:18.927Z,1010.04
2019-01-02T01:26:18.939Z,1009.95
2019-01-02T01:27:18.940Z,1010.00
2019-01-02T01:28:18.956Z,1010.21
2019-01-02T01:29:18.968Z,1010.00
2019-01-02T01:30:18.983Z,1010.08
2019-01-02T01:31:18.995Z,1010.13
2019-01-02T01:32:18.997Z,1010.07
2019-01-02T01:33:19.058Z,1010.01
2019-01-02T01:34:19.022Z,1010.09
2019-01-02T01:35:19.036Z,1010.10
2019-01-02T01:36:19.049Z,1010.12
2019-01-02T01:37:19.050Z,1010.04
2019-01-02T01:38:19.067Z,1010.13
2019-01-02T01:39:19.078Z,1010.11
2019-01-02T01:40:19.092Z,1010.07
2019-01-02T01:41:19.120Z,1009.96
2019-01-02T01:42:19.107Z,1010.04
2019-01-02T01:43:19.120Z,1010.18
2019-01-02T01:44:19.133Z,1010.08
2019-01-02T01:45:19.148Z,1010.13
2019-01-02T01:46:19.161Z,1010.13
2019-01-02T01:47:19.165Z,1010.13
2019-01-02T01:48:19.176Z,1010.12
2019-01-02T01:49:19.189Z,1010.09
2019-01-02T01:50:19.204Z,1010.04
2019-01-02T01:51:19.215Z,1010.08
2019-01-02T01:52:19.217Z,1010.06
2019-01-02T01:53:19.231Z,1009.99
2019-01-02T01:54:19.246Z,1010.01
2019-01-02T01:55:19.259Z,1010.02
2019-01-02T01:56:19.271Z,1010.08
2019-01-02T01:57:19.272Z,1010.08
2019-01-02T01:58:19.287Z,1010.05
2019-01-02T01:59:19.302Z,1010.18
2019-01-02T02:00:19.314Z,1010.01
2019-01-02T02:01:19.338Z,1010.18
2019-01-02T02:02:19.341Z,1010.11
2019-01-02T02:03:19.343Z,1010.10
2019-01-02T02:04:19.357Z,1010.09
2019-01-02T02:05:19.371Z,1010.17
2019-01-02T02:06:19.381Z,1010.10
2019-01-02T02:07:19.395Z,1010.19
2019-01-02T02:08:19.396Z,1010.19
2019-01-02T02:09:19.411Z,1010.15
2019-01-02T02:10:19.424Z,1010.35
2019-01-02T02:11:19.437Z,1010.17
2019-01-02T02:12:19.438Z,1010.19
2019-01-02T02:13:19.452Z,1010.34
2019-01-02T02:14:19.467Z,1010.31
2019-01-02T02:15:19.478Z,1010.29
2019-01-02T02:16:19.491Z,1010.25
2019-01-02T02:17:19.494Z,1010.31
2019-01-02T02:18:19.507Z,1010.15
2019-01-02T02:19:19.521Z,1010.28
2019-01-02T02:20:19.534Z,1010.28
2019-01-02T02:21:19.547Z,1010.31
2019-01-02T02:22:19.561Z,1010.27
2019-01-02T02:23:19.563Z,1010.21
2019-01-02T02:24:19.575Z,1010.22
2019-01-02T02:25:19.591Z,1010.36
2019-01-02T02:26:19.601Z,1010.42
2019-01-02T02:27:19.616Z,1010.41
2019-01-02T02:28:19.621Z,1010.35
2019-01-02T02:29:19.631Z,1010.38
2019-01-02T02:30:19.646Z,1010.42
2019-01-02T02:31:19.657Z,1010.34
2019-01-02T02:32:19.671Z,1010.55
2019-01-02T02:33:19.671Z,1010.30
2019-01-02T02:34:19.685Z,1010.35
2019-01-02T02:35:19.700Z,1010.42
2019-01-02T02:36:19.713Z,1010.40
2019-01-02T02:37:19.727Z,1010.43
2019-01-02T02:38:19.732Z,1010.48
2019-01-02T02:39:19.740Z,1010.47
2019-01-02T02:40:19.754Z,1010.54
2019-01-02T02:41:19.767Z,1010.51
2019-01-02T02:42:19.782Z,1010.45
2019-01-02T02:43:19.783Z,1010.49
2019-01-02T02:44:19.798Z,1010.43
2019-01-02T02:45:19.809Z,1010.51
2019-01-02T02:46:19.822Z,1010.56
2019-01-02T02:47:19.837Z,1010.46
2019-01-02T02:48:19.839Z,1010.46
2019-01-02T02:49:19.850Z,1010.58
2019-01-02T02:50:19.865Z,1010.49
2019-01-02T02:51:19.877Z,1010.37
2019-01-02T02:52:19.892Z,1010.44
2019-01-02T02:53:19.892Z,1010.46
2019-01-02T02:54:19.905Z,1010.37
2019-01-02T02:55:19.919Z,1010.40
2019-01-02T02:56:19.934Z,1010.56
2019-01-02T02:57:19.947Z,1010.54
2019-01-02T02:58:19.951Z,1010.44
2019-01-02T02:59:19.960Z,1010.33
2019-01-02T03:00:19.981Z,1010.48
2019-01-02T03:01:19.988Z,1010.53
2019-01-02T03:02:20.004Z,1010.42
2019-01-02T03:03:20.016Z,1010.43
2019-01-02T03:04:20.020Z,1010.45
2019-01-02T03:05:20.032Z,1010.53
2019-01-02T03:06:20.043Z,1010.53
2019-01-02T03:07:20.310Z,1010.49
2019-01-02T03:08:20.058Z,1010.45
2019-01-02T03:09:20.070Z,1010.47
2019-01-02T03:10:20.084Z,1010.54
2019-01-02T03:11:20.098Z,1010.50
2019-01-02T03:12:20.112Z,1010.46
2019-01-02T03:13:20.124Z,1010.50
2019-01-02T03:14:20.139Z,1010.49
2019-01-02T03:15:20.140Z,1010.51
2019-01-02T03:16:20.153Z,1010.49
2019-01-02T03:17:20.467Z,1010.53
2019-01-02T03:18:20.181Z,1010.56
2019-01-02T03:19:20.182Z,1010.64
2019-01-02T03:20:20.198Z,1010.73
2019-01-02T03:21:20.208Z,1010.60
2019-01-02T03:22:20.223Z,1010.69
2019-01-02T03:23:20.235Z,1010.67
2019-01-02T03:24:20.236Z,1010.72
2019-01-02T03:25:20.250Z,1010.74
2019-01-02T03:26:20.271Z,1010.74
2019-01-02T03:27:20.277Z,1010.76
2019-01-02T03:28:20.290Z,1010.64
2019-01-02T03:29:20.291Z,1010.73
2019-01-02T03:30:20.311Z,1010.78
2019-01-02T03:31:20.322Z,1010.74
2019-01-02T03:32:20.335Z,1010.76
2019-01-02T03:33:20.358Z,1010.82
2019-01-02T03:34:20.359Z,1010.83
2019-01-02T03:35:20.361Z,1010.92
2019-01-02T03:36:20.373Z,1010.94
2019-01-02T03:37:20.388Z,1011.09
2019-01-02T03:38:20.400Z,1011.07
2019-01-02T03:39:20.415Z,1011.08
2019-01-02T03:40:20.419Z,1011.10
2019-01-02T03:41:20.429Z,1010.83
2019-01-02T03:42:20.444Z,1011.22
2019-01-02T03:43:20.505Z,1011.21
2019-01-02T03:44:20.459Z,1011.26
2019-01-02T03:45:20.472Z,1011.32
2019-01-02T03:46:20.484Z,1011.30
2019-01-02T03:47:20.499Z,1011.32
2019-01-02T03:48:20.512Z,1011.20
2019-01-02T03:49:20.526Z,1011.33
2019-01-02T03:50:20.526Z,1011.13
2019-01-02T03:51:20.539Z,1011.16
2019-01-02T03:52:20.554Z,1011.32
2019-01-02T03:53:20.567Z,1011.06
2019-01-02T03:54:20.581Z,1011.17
2019-01-02T03:55:20.597Z,1011.19
2019-01-02T03:56:20.595Z,1011.19
2019-01-02T03:57:20.609Z,1011.16
2019-01-02T03:58:20.623Z,1011.18
2019-01-02T03:59:20.636Z,1011.21
2019-01-02T04:00:20.649Z,1011.24
2019-01-02T04:01:20.650Z,1011.34
2019-01-02T04:02:20.664Z,1011.28
2019-01-02T04:03:20.677Z,1011.27
2019-01-02T04:04:20.692Z,1011.34
2019-01-02T04:05:20.747Z,1011.28
2019-01-02T04:06:20.706Z,1011.32
2019-01-02T04:07:20.723Z,1011.30
2019-01-02T04:08:20.732Z,1011.33
2019-01-02T04:09:20.747Z,1011.38
2019-01-02T04:10:20.759Z,1011.30
2019-01-02T04:11:20.764Z,1011.38
2019-01-02T04:12:20.776Z,1011.34
2019-01-02T04:13:20.787Z,1011.34
2019-01-02T04:14:20.801Z,1011.34
2019-01-02T04:15:20.816Z,1011.32
2019-01-02T04:16:20.815Z,1011.10
2019-01-02T04:17:20.830Z,1011.27
2019-01-02T04:18:20.844Z,1011.52
2019-01-02T04:19:20.868Z,1011.47
2019-01-02T04:20:20.859Z,1011.35
2019-01-02T04:21:20.873Z,1011.38
2019-01-02T04:22:20.884Z,1011.43
2019-01-02T04:23:20.899Z,1011.40
2019-01-02T04:24:20.912Z,1011.45
2019-01-02T04:25:20.913Z,1011.41
2019-01-02T04:26:20.926Z,1011.44
2019-01-02T04:27:20.940Z,1011.42
2019-01-02T04:28:20.953Z,1011.43
2019-01-02T04:29:20.954Z,1011.47
2019-01-02T04:30:20.968Z,1011.44
2019-01-02T04:31:20.981Z,1011.44
2019-01-02T04:32:20.998Z,1011.48
2019-01-02T04:33:21.015Z,1011.50
2019-01-02T04:34:21.010Z,1011.56
2019-01-02T04:35:21.026Z,1011.62
2019-01-02T04:36:21.037Z,1011.59
2019-01-02T04:37:21.051Z,1011.52
2019-01-02T04:38:21.053Z,1011.47
2019-01-02T04:39:21.066Z,1011.62
2019-01-02T04:40:21.079Z,1011.57
2019-01-02T04:41:21.104Z,1011.68
2019-01-02T04:42:21.109Z,1011.65
2019-01-02T04:43:21.107Z,1011.69
2019-01-02T04:44:21.120Z,1011.71
2019-01-02T04:45:21.133Z,1011.71
2019-01-02T04:46:21.148Z,1011.72
2019-01-02T04:47:21.160Z,1011.72
2019-01-02T04:48:21.161Z,1011.85
2019-01-02T04:49:21.179Z,1011.87
2019-01-02T04:50:21.188Z,1011.87
2019-01-02T04:51:21.202Z,1011.94
2019-01-02T04:52:21.203Z,1011.84
2019-01-02T04:53:21.218Z,1011.98
2019-01-02T04:54:21.230Z,1011.92
2019-01-02T04:55:21.244Z,1011.88
2019-01-02T04:56:21.246Z,1011.91
2019-01-02T04:57:21.259Z,1011.85
2019-01-02T04:58:21.272Z,1012.00
2019-01-02T04:59:21.286Z,1011.88
2019-01-02T05:00:21.305Z,1011.88
2019-01-02T05:01:21.301Z,1011.87
2019-01-02T05:02:21.314Z,1011.98
2019-01-02T05:03:21.328Z,1011.87
2019-01-02T05:04:21.343Z,1011.86
2019-01-02T05:05:21.355Z,1011.88
2019-01-02T05:06:21.356Z,1011.93
2019-01-02T05:07:21.383Z,1011.88
2019-01-02T05:08:21.386Z,1011.91
2019-01-02T05:09:21.396Z,1011.90
2019-01-02T05:10:21.410Z,1011.91
2019-01-02T05:11:21.412Z,1012.00
2019-01-02T05:12:21.423Z,1012.00
2019-01-02T05:13:21.441Z,1011.94
2019-01-02T05:14:21.451Z,1012.09
2019-01-02T05:15:21.466Z,1012.00
2019-01-02T05:16:21.467Z,1011.97
2019-01-02T05:17:21.479Z,1012.01
2019-01-02T05:18:21.493Z,1011.95
2019-01-02T05:19:21.507Z,1012.01
2019-01-02T05:20:21.521Z,1012.01
2019-01-02T05:21:21.532Z,1011.94
2019-01-02T05:22:21.534Z,1012.09
2019-01-02T05:23:21.549Z,1012.08
2019-01-02T05:24:21.560Z,1012.18
2019-01-02T05:25:21.576Z,1012.10
2019-01-02T05:26:21.588Z,1012.20
2019-01-02T05:27:21.590Z,1012.21
2019-01-02T05:28:21.603Z,1012.18
2019-01-02T05:29:21.616Z,1012.17
2019-01-02T05:30:21.634Z,1012.33
2019-01-02T05:31:21.644Z,1012.23
2019-01-02T05:32:21.645Z,1012.32
2019-01-02T05:33:21.658Z,1012.36
2019-01-02T05:34:21.672Z,1012.26
2019-01-02T05:35:21.687Z,1012.34
2019-01-02T05:36:21.698Z,1012.34
2019-01-02T05:37:21.717Z,1012.43
2019-01-02T05:38:21.714Z,1012.48
2019-01-02T05:39:21.727Z,1012.41
2019-01-02T05:40:21.740Z,1012.38
2019-01-02T05:41:21.753Z,1012.50
2019-01-02T05:42:21.768Z,1012.48
2019-01-02T05:43:21.780Z,1012.41
2019-01-02T05:44:21.782Z,1012.45
2019-01-02T05:45:21.799Z,1012.60
2019-01-02T05:46:21.809Z,1012.51
2019-01-02T05:47:21.823Z,1012.57
2019-01-02T05:48:21.837Z,1012.52
2019-01-02T05:49:21.849Z,1012.52
2019-01-02T05:50:21.851Z,1012.63
2019-01-02T05:51:21.863Z,1012.50
2019-01-02T05:52:21.878Z,1012.61
2019-01-02T05:53:21.891Z,1012.68
2019-01-02T05:54:21.906Z,1012.62
2019-01-02T05:55:21.910Z,1012.59
2019-01-02T05:56:21.920Z,1012.73
2019-01-02T05:57:21.934Z,1012.80
2019-01-02T05:58:21.946Z,1012.78
2019-01-02T05:59:21.959Z,1012.84
2019-01-02T06:00:21.962Z,1012.85
2019-01-02T06:01:21.974Z,1012.89
2019-01-02T06:02:21.988Z,1012.90
2019-01-02T06:03:22.001Z,1012.91
2019-01-02T06:04:22.016Z,1012.97
2019-01-02T06:05:22.017Z,1012.95
2019-01-02T06:06:22.030Z,1013.02
2019-01-02T06:07:22.043Z,1012.99
2019-01-02T06:08:22.060Z,1013.02
2019-01-02T06:09:22.072Z,1013.04
2019-01-02T06:10:22.088Z,1013.06
2019-01-02T06:11:22.087Z,1013.11
2019-01-02T06:12:22.100Z,1013.02
2019-01-02T06:13:22.112Z,1013.10
2019-01-02T06:14:22.126Z,1013.11
2019-01-02T06:15:22.143Z,1013.14
2019-01-02T06:16:22.140Z,1013.15
2019-01-02T06:17:22.155Z,1013.21
2019-01-02T06:18:22.166Z,1013.19
2019-01-02T06:19:22.182Z,1013.24
2019-01-02T06:20:22.193Z,1013.24
2019-01-02T06:21:22.213Z,1013.22
2019-01-02T06:22:22.212Z,1013.32
2019-01-02T06:23:22.224Z,1013.32
2019-01-02T06:24:22.236Z,1013.25
2019-01-02T06:25:22.257Z,1013.31
2019-01-02T06:26:22.264Z,1013.33
2019-01-02T06:27:22.276Z,1013.30
2019-01-02T06:28:22.304Z,1013.30
2019-01-02T06:29:22.292Z,1013.31
2019-01-02T06:30:22.310Z,1013.29
2019-01-02T06:31:22.365Z,1013.33
2019-01-02T06:32:22.333Z,1013.39
2019-01-02T06:33:22.336Z,1013.30
2019-01-02T06:34:22.349Z,1013.29
2019-01-02T06:35:22.373Z,1013.36
2019-01-02T06:36:22.375Z,1013.39
2019-01-02T06:37:22.387Z,1013.45
2019-01-02T06:38:22.401Z,1013.52
2019-01-02T06:39:22.414Z,1013.52
2019-01-02T06:40:22.418Z,1013.51
2019-01-02T06:41:22.430Z,1013.54
2019-01-02T06:42:22.443Z,1013.53
2019-01-02T06:43:22.456Z,1013.68
2019-01-02T06:44:22.469Z,1013.58
2019-01-02T06:45:22.471Z,1013.58
2019-01-02T06:46:22.486Z,1013.63
2019-01-02T06:47:22.499Z,1013.61
2019-01-02T06:48:22.513Z,1013.62
2019-01-02T06:49:22.525Z,1013.62
2019-01-02T06:50:22.539Z,1013.69
2019-01-02T06:51:22.543Z,1013.67
2019-01-02T06:52:22.553Z,1013.74
2019-01-02T06:53:22.569Z,1013.73
2019-01-02T06:54:22.580Z,1013.79
2019-01-02T06:55:22.596Z,1013.82
2019-01-02T06:56:22.609Z,1013.80
2019-01-02T06:57:22.621Z,1013.82
2019-01-02T06:58:22.622Z,1013.91
2019-01-02T06:59:22.635Z,1013.85
2019-01-02T07:00:22.651Z,1013.90
2019-01-02T07:01:22.664Z,1013.97
2019-01-02T07:02:22.680Z,1013.99
2019-01-02T07:03:22.681Z,1013.98
2019-01-02T07:04:22.691Z,1013.98
2019-01-02T07:05:22.704Z,1014.00
2019-01-02T07:06:22.718Z,1014.04
2019-01-02T07:07:22.732Z,1014.05
2019-01-02T07:08:22.745Z,1014.04
2019-01-02T07:09:22.746Z,1014.11
2019-01-02T07:10:22.760Z,1014.13
2019-01-02T07:11:22.774Z,1014.17
2019-01-02T07:12:22.786Z,1014.22
2019-01-02T07:13:22.800Z,1014.22
2019-01-02T07:14:22.813Z,1014.24
2019-01-02T07:15:23.623Z,1014.25
2019-01-02T07:16:22.828Z,1014.27
2019-01-02T07:17:22.846Z,1014.29
2019-01-02T07:18:22.855Z,1014.36
2019-01-02T07:19:22.869Z,1014.36
2019-01-02T07:20:22.882Z,1014.46
2019-01-02T07:21:22.898Z,1014.43
2019-01-02T07:22:22.897Z,1014.44
2019-01-02T07:23:22.910Z,1014.50
2019-01-02T07:24:22.924Z,1014.57
2019-01-02T07:25:22.938Z,1014.57
2019-01-02T07:26:22.951Z,1014.61
2019-01-02T07:27:22.964Z,1014.82
2019-01-02T07:28:22.965Z,1014.84
2019-01-02T07:29:22.980Z,1015.04
2019-01-02T07:30:22.992Z,1014.74
2019-01-02T07:31:23.007Z,1014.71
2019-01-02T07:32:24.714Z,1014.72
2019-01-02T07:33:23.034Z,1014.77
2019-01-02T07:34:23.059Z,1014.73
2019-01-02T07:35:23.061Z,1014.81
2019-01-02T07:36:23.063Z,1014.79
2019-01-02T07:37:23.134Z,1014.86
2019-01-02T07:38:23.088Z,1014.89
2019-01-02T07:39:23.102Z,1014.91
2019-01-02T07:40:23.116Z,1014.87
2019-01-02T07:41:23.116Z,1014.85
2019-01-02T07:42:23.143Z,1014.87
2019-01-02T07:43:23.149Z,1014.84
2019-01-02T07:44:23.157Z,1014.85
2019-01-02T07:45:23.171Z,1015.14
2019-01-02T07:46:23.184Z,1014.91
2019-01-02T07:47:23.188Z,1014.99
2019-01-02T07:48:23.200Z,1015.00
2019-01-02T07:49:23.212Z,1015.10
2019-01-02T07:50:23.227Z,1015.05
2019-01-02T07:51:23.240Z,1015.15
2019-01-02T07:52:23.253Z,1015.10
2019-01-02T07:53:23.254Z,1015.13
2019-01-02T07:54:23.269Z,1015.23
2019-01-02T07:55:23.282Z,1015.12
2019-01-02T07:56:23.299Z,1015.16
2019-01-02T07:57:23.309Z,1015.24
2019-01-02T07:58:23.332Z,1015.40
2019-01-02T07:59:23.336Z,1015.33
2019-01-02T08:00:23.337Z,1015.36
2019-01-02T08:01:23.349Z,1015.37
2019-01-02T08:02:23.364Z,1015.35
2019-01-02T08:03:23.376Z,1015.39
2019-01-02T08:04:23.391Z,1015.46
2019-01-02T08:05:23.403Z,1015.46
2019-01-02T08:06:23.409Z,1015.50
2019-01-02T08:07:23.421Z,1015.56
2019-01-02T08:08:23.432Z,1015.58
2019-01-02T08:09:23.444Z,1015.58
2019-01-02T08:10:23.462Z,1015.64
2019-01-02T08:11:23.473Z,1015.60
2019-01-02T08:12:23.475Z,1015.64
2019-01-02T08:13:23.486Z,1015.63
2019-01-02T08:14:23.503Z,1015.77
2019-01-02T08:15:23.527Z,1015.83
2019-01-02T08:16:23.527Z,1015.73
2019-01-02T08:17:23.541Z,1015.76
2019-01-02T08:18:23.543Z,1015.82
2019-01-02T08:19:23.557Z,1015.81
2019-01-02T08:20:23.579Z,1015.99
2019-01-02T08:21:23.584Z,1015.90
2019-01-02T08:22:23.597Z,1015.85
2019-01-02T08:23:23.610Z,1015.86
2019-01-02T08:24:23.624Z,1015.93
2019-01-02T08:25:23.625Z,1015.95
2019-01-02T08:26:23.641Z,1015.97
2019-01-02T08:27:23.651Z,1015.92
2019-01-02T08:28:23.665Z,1015.84
2019-01-02T08:29:23.678Z,1015.94
2019-01-02T08:30:23.692Z,1015.94
2019-01-02T08:31:23.693Z,1016.01
2019-01-02T08:32:23.706Z,1015.93
2019-01-02T08:33:23.721Z,1016.00
2019-01-02T08:34:23.737Z,1015.90
2019-01-02T08:35:23.748Z,1015.93
2019-01-02T08:36:23.750Z,1015.99
2019-01-02T08:37:23.762Z,1016.05
2019-01-02T08:38:23.776Z,1016.09
2019-01-02T08:39:23.789Z,1016.03
2019-01-02T08:40:23.804Z,1016.14
2019-01-02T08:41:23.815Z,1016.17
2019-01-02T08:42:23.818Z,1016.12
2019-01-02T08:43:23.831Z,1016.20
2019-01-02T08:44:23.844Z,1016.16
2019-01-02T08:45:23.858Z,1016.29
2019-01-02T08:46:23.874Z,1016.23
2019-01-02T08:47:23.885Z,1016.25
2019-01-02T08:48:23.896Z,1016.31
2019-01-02T08:49:23.898Z,1016.54
2019-01-02T08:50:23.914Z,1016.39
2019-01-02T08:51:23.926Z,1016.40
2019-01-02T08:52:23.940Z,1016.35
2019-01-02T08:53:23.953Z,1016.38
2019-01-02T08:54:23.967Z,1016.41
2019-01-02T08:55:23.968Z,1016.36
2019-01-02T08:56:23.993Z,1016.40
2019-01-02T08:57:23.995Z,1016.38
2019-01-02T08:58:24.008Z,1016.49
2019-01-02T08:59:24.022Z,1016.43
2019-01-02T09:00:24.035Z,1016.49
2019-01-02T09:01:24.049Z,1016.50
2019-01-02T09:02:24.050Z,1016.43
2019-01-02T09:03:24.062Z,1016.55
2019-01-02T09:04:24.077Z,1016.55
2019-01-02T09:05:24.090Z,1016.76
2019-01-02T09:06:24.104Z,1016.57
2019-01-02T09:07:24.125Z,1016.65
2019-01-02T09:08:24.120Z,1016.62
2019-01-02T09:09:24.144Z,1016.86
2019-01-02T09:10:24.145Z,1016.81
2019-01-02T09:11:24.159Z,1016.74
2019-01-02T09:12:24.172Z,1016.84
2019-01-02T09:13:24.187Z,1016.87
2019-01-02T09:14:24.200Z,1016.88
2019-01-02T09:15:24.220Z,1017.07
2019-01-02T09:16:24.215Z,1017.09
2019-01-02T09:17:24.227Z,1017.32
2019-01-02T09:18:24.241Z,1017.30
2019-01-02T09:19:24.258Z,1017.25
2019-01-02T09:20:24.268Z,1017.30
2019-01-02T09:21:24.283Z,1017.43
2019-01-02T09:22:24.295Z,1017.43
2019-01-02T09:23:24.298Z,1017.56
2019-01-02T09:24:24.309Z,1017.51
2019-01-02T09:25:24.324Z,1017.48
2019-01-02T09:26:24.340Z,1017.54
2019-01-02T09:27:24.350Z,1017.56
2019-01-02T09:28:24.364Z,1017.58
2019-01-02T09:29:24.365Z,1017.62
2019-01-02T09:30:24.379Z,1017.62
2019-01-02T09:31:24.392Z,1017.67
2019-01-02T09:32:24.407Z,1017.70
2019-01-02T09:33:24.420Z,1017.60
2019-01-02T09:34:24.421Z,1017.65
2019-01-02T09:35:24.435Z,1017.70
2019-01-02T09:36:24.460Z,1017.79
2019-01-02T09:37:24.462Z,1017.83
2019-01-02T09:38:24.474Z,1017.79
2019-01-02T09:39:24.475Z,1017.74
2019-01-02T09:40:24.490Z,1017.79
2019-01-02T09:41:24.503Z,1017.72
2019-01-02T09:42:24.516Z,1017.81
2019-01-02T09:43:24.677Z,1017.80
2019-01-02T09:44:24.530Z,1017.83
2019-01-02T09:45:24.545Z,1017.87
2019-01-02T09:46:24.605Z,1017.80
2019-01-02T09:47:24.603Z,1017.92
2019-01-02T09:48:24.573Z,1017.90
2019-01-02T09:49:24.586Z,1017.92
2019-01-02T09:50:24.601Z,1017.99
2019-01-02T09:51:24.613Z,1018.03
2019-01-02T09:52:24.615Z,1017.94
2019-01-02T09:53:24.631Z,1017.94
2019-01-02T09:54:24.642Z,1017.99
2019-01-02T09:55:24.655Z,1018.01
2019-01-02T09:56:24.667Z,1018.01
2019-01-02T09:57:24.669Z,1018.01
2019-01-02T09:58:24.684Z,1018.15
2019-01-02T09:59:24.697Z,1018.04
2019-01-02T10:00:24.711Z,1018.06
2019-01-02T10:01:24.723Z,1018.07
2019-01-02T10:02:24.724Z,1018.10
2019-01-02T10:03:24.739Z,1018.08
2019-01-02T10:04:24.751Z,1018.12
2019-01-02T10:05:24.764Z,1018.15
2019-01-02T10:06:24.777Z,1018.18
2019-01-02T10:07:24.780Z,1018.12
2019-01-02T10:08:24.794Z,1018.19
2019-01-02T10:09:24.807Z,1018.17
2019-01-02T10:10:24.827Z,1018.20
2019-01-02T10:11:24.833Z,1018.18
2019-01-02T10:12:24.835Z,1018.19
2019-01-02T10:13:24.850Z,1018.19
2019-01-02T10:14:24.863Z,1018.15
2019-01-02T10:15:24.876Z,1018.18
2019-01-02T10:16:24.889Z,1018.19
2019-01-02T10:17:24.902Z,1018.20
2019-01-02T10:18:24.905Z,1018.20
2019-01-02T10:19:24.917Z,1018.20
2019-01-02T10:20:24.931Z,1018.26
2019-01-02T10:21:24.943Z,1018.24
2019-01-02T10:22:24.961Z,1018.26
2019-01-02T10:23:24.986Z,1018.24
2019-01-02T10:24:24.991Z,1018.24
2019-01-02T10:25:24.989Z,1018.23
2019-01-02T10:26:24.998Z,1018.27
2019-01-02T10:27:25.013Z,1018.27
2019-01-02T10:28:25.029Z,1018.26
2019-01-02T10:29:25.027Z,1018.25
2019-01-02T10:30:25.041Z,1018.27
2019-01-02T10:31:25.054Z,1018.25
2019-01-02T10:32:25.068Z,1018.30
2019-01-02T10:33:25.081Z,1018.21
2019-01-02T10:34:25.095Z,1018.25
2019-01-02T10:35:25.096Z,1018.30
2019-01-02T10:36:25.113Z,1018.40
2019-01-02T10:37:25.126Z,1018.40
2019-01-02T10:38:25.136Z,1018.33
2019-01-02T10:39:25.150Z,1018.39
2019-01-02T10:40:25.151Z,1018.43
2019-01-02T10:41:25.165Z,1018.42
2019-01-02T10:42:25.179Z,1018.39
2019-01-02T10:43:25.204Z,1018.48
2019-01-02T10:44:25.205Z,1018.46
2019-01-02T10:45:25.220Z,1018.48
2019-01-02T10:46:25.219Z,1018.48
2019-01-02T10:47:25.234Z,1018.49
2019-01-02T10:48:25.246Z,1018.44
2019-01-02T10:49:25.261Z,1018.47
2019-01-02T10:50:25.274Z,1018.51
2019-01-02T10:51:25.277Z,1018.51
2019-01-02T10:52:25.291Z,1018.55
2019-01-02T10:53:25.303Z,1018.56
2019-01-02T10:54:25.316Z,1018.60
2019-01-02T10:55:25.330Z,1018.68
2019-01-02T10:56:25.343Z,1018.61
2019-01-02T10:57:25.355Z,1018.63
2019-01-02T10:58:25.357Z,1018.64
2019-01-02T10:59:25.372Z,1018.69
2019-01-02T11:00:25.384Z,1018.68
2019-01-02T11:01:25.399Z,1018.69
2019-01-02T11:02:25.411Z,1018.70
2019-01-02T11:03:25.426Z,1018.72
2019-01-02T11:04:25.426Z,1018.68
2019-01-02T11:05:25.443Z,1018.68
2019-01-02T11:06:25.454Z,1018.69
2019-01-02T11:07:25.467Z,1018.71
2019-01-02T11:08:25.480Z,1018.76
2019-01-02T11:09:25.493Z,1018.73
2019-01-02T11:10:25.507Z,1018.80
2019-01-02T11:11:25.520Z,1018.82
2019-01-02T11:12:25.522Z,1018.71
2019-01-02T11:13:25.536Z,1018.78
2019-01-02T11:14:25.548Z,1018.63
2019-01-02T11:15:26.662Z,1018.72
2019-01-02T11:16:25.576Z,1018.72
2019-01-02T11:17:25.589Z,1018.75
2019-01-02T11:18:25.602Z,1018.80
2019-01-02T11:19:25.617Z,1018.66
2019-01-02T11:20:25.617Z,1018.83
2019-01-02T11:21:25.631Z,1018.79
2019-01-02T11:22:25.647Z,1018.66
2019-01-02T11:23:25.673Z,1018.78
2019-01-02T11:24:25.675Z,1018.87
2019-01-02T11:25:25.685Z,1018.82
2019-01-02T11:26:25.703Z,1018.76
2019-01-02T11:27:25.711Z,1018.95
2019-01-02T11:28:25.713Z,1018.87
2019-01-02T11:29:25.727Z,1018.94
2019-01-02T11:30:25.740Z,1018.99
2019-01-02T11:31:25.756Z,1018.98
2019-01-02T11:32:25.767Z,1018.84
2019-01-02T11:33:25.782Z,1019.06
2019-01-02T11:34:25.794Z,1019.08
2019-01-02T11:35:25.795Z,1018.98
2019-01-02T11:36:25.810Z,1019.07
2019-01-02T11:37:25.823Z,1019.17
2019-01-02T11:38:25.836Z,1019.06
2019-01-02T11:39:25.849Z,1019.13
2019-01-02T11:40:25.863Z,1019.22
2019-01-02T11:41:25.865Z,1019.12
2019-01-02T11:42:25.883Z,1019.18
2019-01-02T11:43:25.892Z,1019.13
2019-01-02T11:44:25.905Z,1019.13
2019-01-02T11:45:25.919Z,1019.16
2019-01-02T11:46:25.932Z,1019.25
2019-01-02T11:47:25.946Z,1019.19
2019-01-02T11:48:25.947Z,1019.20
2019-01-02T11:49:25.962Z,1019.19
2019-01-02T11:50:25.974Z,1019.15
2019-01-02T11:51:25.987Z,1019.18
2019-01-02T11:52:26.001Z,1019.25
2019-01-02T11:53:26.015Z,1019.25
2019-01-02T11:54:26.027Z,1019.07
2019-01-02T11:55:26.030Z,1019.31
2019-01-02T11:56:26.043Z,1019.26
2019-01-02T11:57:26.057Z,1019.27
2019-01-02T11:58:26.069Z,1019.34
2019-01-02T11:59:26.083Z,1019.45
2019-01-02T12:00:26.139Z,1019.26
2019-01-02T12:01:26.098Z,1019.27
2019-01-02T12:02:26.113Z,1019.30
2019-01-02T12:03:26.140Z,1019.51
2019-01-02T12:04:26.138Z,1019.46
2019-01-02T12:05:26.152Z,1019.39